Time;durP1;ratioP1;P1;durP2;ratioP2;P2;SDS_P1;SDS_P2;PMS_P1;PMS_P2;Temp;Humidity;BMP_temperature;BMP_pressure;BME280_temperature;BME280_humidity;BME280_pressure;Samples;Min_cycle;Max_cycle;Signal;HPM_P1;HPM_P2
2021/08/02 00:01:13;;;;;;;7.75;3.40;;;;;;;16.41;99.32;98216.97;4176214;83;21055;-82
2021/08/02 00:07:18;;;;;;;3.42;3.10;;;;;;;16.42;99.38;98206.70;4172187;83;21566;-82
2021/08/02 00:13:31;;;;;;;9.28;2.92;;;;;;;16.44;99.17;98212.02;4174553;83;21043;-81
2021/08/02 00:19:33;;;;;;;6.05;3.10;;;;;;;16.40;98.90;98216.80;4175244;82;20996;-83
2021/08/02 00:25:35;;;;;;;4.83;3.10;;;;;;;16.37;98.96;98243.91;4163046;83;21051;-81
2021/08/02 00:31:37;;;;;;;8.23;3.27;;;;;;;16.30;98.97;98248.20;4171995;83;21372;-82
2021/08/02 00:45:08;;;;;;;9.40;4.47;;;;;;;16.27;98.92;98260.12;4065780;85;21139;-84
2021/08/02 00:51:11;;;;;;;;;;;;;;;16.21;98.90;98252.17;4124226;84;21081;-84
2021/08/02 00:57:16;;;;;;;9.58;4.65;;;;;;;16.06;98.87;98256.48;4079931;85;20189;-84
2021/08/02 01:03:19;;;;;;;7.67;4.20;;;;;;;15.99;98.91;98258.00;4177243;83;21693;-84
2021/08/02 01:09:26;;;;;;;7.35;4.17;;;;;;;15.91;99.09;98266.88;4168844;83;21095;-84
2021/08/02 01:15:28;;;;;;;10.28;4.58;;;;;;;15.91;99.16;98257.98;4176371;83;21528;-84
2021/08/02 01:21:34;;;;;;;7.53;4.28;;;;;;;15.85;98.96;98266.59;4169933;83;21526;-84
2021/08/02 01:27:46;;;;;;;7.72;3.92;;;;;;;15.84;98.83;98282.20;4173283;83;21072;-84
2021/08/02 01:33:50;;;;;;;7.15;4.30;;;;;;;15.74;98.62;98283.22;4179752;83;21035;-83
2021/08/02 01:39:55;;;;;;;5.83;3.42;;;;;;;15.71;99.08;98298.63;4169347;83;21611;-84
2021/08/02 01:46:31;;;;;;;5.65;3.30;;;;;;;15.68;98.58;98299.47;4157822;83;21102;-83
2021/08/02 01:52:42;;;;;;;11.80;4.40;;;;;;;15.64;98.80;98284.98;4158119;83;21626;-83
2021/08/02 01:58:56;;;;;;;11.10;4.33;;;;;;;15.63;98.86;98291.69;4176100;82;22242;-82
2021/08/02 02:05:21;;;;;;;6.80;4.45;;;;;;;15.68;98.82;98287.84;4167054;83;21035;-83
2021/08/02 02:11:27;;;;;;;9.48;4.50;;;;;;;15.69;98.58;98308.70;4178466;82;21423;-81
2021/08/02 02:17:36;;;;;;;8.48;5.33;;;;;;;15.62;99.06;98320.48;4167871;83;21067;-82
2021/08/02 02:23:38;;;;;;;10.63;7.33;;;;;;;15.69;98.91;98323.88;4166222;83;21551;-82
2021/08/02 02:29:41;;;;;;;12.25;7.33;;;;;;;15.74;99.14;98317.70;4177562;83;20972;-84
2021/08/02 02:35:47;;;;;;;11.43;8.65;;;;;;;15.75;98.75;98330.29;4176449;83;21009;-82
2021/08/02 02:41:49;;;;;;;16.30;8.73;;;;;;;15.76;98.90;98333.22;4124953;83;21010;-81
2021/08/02 02:47:55;;;;;;;16.02;10.38;;;;;;;15.74;99.10;98335.02;4128613;84;21077;-81
2021/08/02 02:54:01;;;;;;;14.05;10.82;;;;;;;15.75;99.00;98352.36;4113736;84;21110;-82
2021/08/02 03:00:06;;;;;;;16.37;11.03;;;;;;;15.71;98.83;98360.70;4117978;84;21119;-82
2021/08/02 03:06:12;;;;;;;19.10;11.48;;;;;;;15.66;98.98;98377.16;4106533;85;21107;-81
2021/08/02 03:12:14;;;;;;;17.62;10.53;;;;;;;15.66;98.81;98381.88;4120206;84;21100;-81
2021/08/02 03:18:15;;;;;;;15.75;11.08;;;;;;;15.66;99.15;98384.64;4015375;86;21057;-82
2021/08/02 03:24:29;;;;;;;13.70;10.58;;;;;;;15.65;98.87;98389.41;4103915;84;21114;-82
2021/08/02 03:30:33;;;;;;;18.60;12.03;;;;;;;15.68;98.87;98387.77;4118081;84;21062;-82
2021/08/02 03:36:35;;;;;;;16.90;10.53;;;;;;;15.69;98.91;98393.48;4072930;85;21760;-82
2021/08/02 03:42:39;;;;;;;17.52;11.43;;;;;;;15.72;99.15;98398.16;4110397;84;21141;-84
2021/08/02 03:48:41;;;;;;;11.85;10.60;;;;;;;15.74;98.94;98404.62;4172804;83;21063;-81
2021/08/02 03:54:43;;;;;;;17.20;12.15;;;;;;;15.72;99.10;98410.57;4170202;81;21051;-83
2021/08/02 04:00:45;;;;;;;13.60;10.58;;;;;;;15.69;98.83;98412.17;4115876;83;215745;-82
2021/08/02 04:06:48;;;;;;;16.65;9.83;;;;;;;15.62;98.84;98428.09;4114874;84;21038;-82
2021/08/02 04:12:52;;;;;;;17.07;9.65;;;;;;;15.69;99.21;98429.35;4118514;84;21062;-83
2021/08/02 04:18:53;;;;;;;14.25;10.28;;;;;;;15.73;99.14;98436.95;4111682;85;21042;-83
2021/08/02 04:24:54;;;;;;;14.40;9.50;;;;;;;15.79;99.07;98440.78;4118484;84;21101;-83
2021/08/02 04:30:56;;;;;;;18.92;11.70;;;;;;;15.76;98.95;98444.38;4114248;84;21018;-83
2021/08/02 04:37:27;;;;;;;14.30;11.83;;;;;;;15.81;99.11;98454.16;4114519;84;21030;-82
2021/08/02 04:43:28;;;;;;;13.53;9.10;;;;;;;15.79;98.95;98457.92;4112316;84;22173;-82
2021/08/02 04:49:29;;;;;;;12.20;9.20;;;;;;;15.76;98.83;98465.67;4117882;84;21007;-83
2021/08/02 04:55:35;;;;;;;9.05;6.67;;;;;;;15.78;98.75;98466.03;4117780;84;21059;-82
2021/08/02 05:01:36;;;;;;;10.10;7.20;;;;;;;15.75;98.50;98484.82;4039087;86;22114;-82
2021/08/02 05:07:37;;;;;;;10.93;5.10;;;;;;;15.75;98.89;98480.09;4028404;86;21121;-85
2021/08/02 05:13:43;;;;;;;9.70;4.30;;;;;;;15.83;99.08;98487.63;4028639;85;21042;-82
2021/08/02 05:19:44;;;;;;;7.17;4.00;;;;;;;15.83;98.67;98492.56;3961574;88;21034;-82
2021/08/02 05:25:49;;;;;;;7.87;3.37;;;;;;;15.75;98.50;98502.16;3957293;88;21108;-82
2021/08/02 05:31:50;;;;;;;6.37;3.50;;;;;;;15.77;98.65;98496.22;3967350;87;21015;-81
2021/08/02 05:37:53;;;;;;;6.37;3.50;;;;;;;15.72;98.54;98503.01;4038407;86;21114;-82
2021/08/02 05:43:54;;;;;;;7.08;3.12;;;;;;;15.74;98.61;98514.38;4034635;86;21824;-81
2021/08/02 05:49:56;;;;;;;8.10;3.58;;;;;;;15.65;98.26;98515.53;4116456;84;21038;-82
2021/08/02 05:55:57;;;;;;;4.87;2.55;;;;;;;15.69;98.62;98522.55;4112589;84;21035;-82
2021/08/02 06:01:59;;;;;;;5.90;2.67;;;;;;;15.66;98.09;98526.73;4114284;84;21556;-82
2021/08/02 06:08:00;;;;;;;4.70;3.10;;;;;;;15.71;98.64;98543.44;4113188;84;20997;-82
2021/08/02 06:14:01;;;;;;;4.72;2.98;;;;;;;15.74;98.40;98551.64;4115231;84;21090;-84
2021/08/02 06:20:05;;;;;;;4.60;2.55;;;;;;;15.77;98.42;98559.70;4118499;84;21066;-83
2021/08/02 06:26:06;;;;;;;8.70;3.05;;;;;;;15.73;98.19;98559.75;4028227;86;21069;-83
2021/08/02 06:32:07;;;;;;;8.33;2.50;;;;;;;15.76;98.49;98571.32;3999817;87;21062;-82
2021/08/02 06:38:34;;;;;;;;;;;;;;;;;;;;;
2021/08/02 06:44:12;;;;;;;7.42;2.52;;;;;;;15.81;98.65;98564.54;3979628;87;22266;-82
2021/08/02 06:50:13;;;;;;;5.80;2.20;;;;;;;15.93;98.76;98579.91;3988080;88;21107;-85
2021/08/02 06:56:14;;;;;;;3.70;1.90;;;;;;;15.97;98.28;98589.52;3988014;87;21067;-83
2021/08/02 07:02:16;;;;;;;3.37;2.33;;;;;;;15.98;98.03;98596.59;3989187;87;21022;-82
2021/08/02 07:08:19;;;;;;;7.12;2.37;;;;;;;15.97;98.25;98591.69;4115051;84;21530;-83
2021/08/02 07:14:20;;;;;;;3.77;2.70;;;;;;;16.01;98.25;98593.77;4046287;86;21086;-82
2021/08/02 07:20:22;;;;;;;4.92;2.50;;;;;;;16.10;98.29;98596.77;4124287;84;21591;-82
2021/08/02 07:26:24;;;;;;;7.90;2.42;;;;;;;16.18;98.44;98589.13;4118002;85;21055;-83
2021/08/02 07:32:25;;;;;;;3.75;2.33;;;;;;;16.27;98.25;98588.77;4118073;84;21093;-82
2021/08/02 07:38:26;;;;;;;3.72;2.60;;;;;;;16.27;98.02;98594.91;4113919;84;21043;-82
2021/08/02 07:44:28;;;;;;;3.70;2.58;;;;;;;16.32;97.90;98604.09;4112973;84;21515;-82
2021/08/02 07:50:29;;;;;;;7.80;2.95;;;;;;;16.37;98.14;98610.49;4120696;84;21020;-82
2021/08/02 07:56:32;;;;;;;6.58;3.80;;;;;;;16.40;97.95;98613.20;4115507;84;21078;-82
2021/08/02 08:02:34;;;;;;;8.73;4.08;;;;;;;16.46;98.06;98621.83;4118539;84;21113;-81
2021/08/02 08:08:35;;;;;;;7.58;3.42;;;;;;;16.48;97.97;98625.72;4115513;84;22009;-82
2021/08/02 08:14:37;;;;;;;4.03;2.98;;;;;;;16.56;97.73;98634.06;4111152;84;21078;-82
2021/08/02 08:20:38;;;;;;;7.40;3.08;;;;;;;16.72;97.44;98637.51;4110647;84;21042;-82
2021/08/02 08:26:39;;;;;;;6.17;2.90;;;;;;;16.94;97.67;98637.27;4115074;84;22048;-83
2021/08/02 08:32:41;;;;;;;5.80;3.20;;;;;;;17.09;96.75;98646.23;4118713;84;21142;-82
2021/08/02 08:38:43;;;;;;;5.03;3.80;;;;;;;17.29;96.74;98653.75;4114395;84;21028;-82
2021/08/02 08:44:46;;;;;;;9.83;5.42;;;;;;;17.33;96.20;98658.59;4108479;84;21657;-84
2021/08/02 08:50:48;;;;;;;10.70;5.25;;;;;;;17.55;96.20;98666.64;4108724;84;21698;-82
2021/08/02 08:56:49;;;;;;;7.22;4.30;;;;;;;18.00;96.33;98667.57;4110531;84;21102;-82
2021/08/02 09:02:52;;;;;;;13.03;5.05;;;;;;;18.16;95.29;98675.89;4112417;84;21038;-81
2021/08/02 09:08:54;;;;;;;4.17;3.22;;;;;;;18.13;94.93;98673.40;4111293;84;21003;-82
2021/08/02 09:14:58;;;;;;;4.08;3.35;;;;;;;18.12;94.70;98665.52;4115676;84;21042;-83
2021/08/02 09:21:03;;;;;;;8.88;3.70;;;;;;;18.12;94.36;98657.97;4116309;84;21548;-83
2021/08/02 09:27:04;;;;;;;3.40;2.60;;;;;;;18.27;94.92;98651.48;4116957;84;21602;-83
2021/08/02 09:33:09;;;;;;;6.78;3.45;;;;;;;18.54;93.83;98653.39;4113611;84;21499;-83
2021/08/02 09:39:14;;;;;;;4.90;3.80;;;;;;;18.67;93.20;98643.13;4110952;84;21066;-82
2021/08/02 09:45:15;;;;;;;4.33;3.00;;;;;;;18.87;93.09;98638.84;4116331;84;22243;-81
2021/08/02 09:51:21;;;;;;;5.22;3.50;;;;;;;19.77;92.96;98646.47;4117384;84;21058;-83
2021/08/02 09:57:23;;;;;;;7.17;3.63;;;;;;;19.95;91.29;98649.45;4114513;84;21570;-82
2021/08/02 10:03:25;;;;;;;3.67;3.27;;;;;;;19.82;89.72;98654.86;4114604;84;21499;-81
2021/08/02 10:09:30;;;;;;;5.25;4.00;;;;;;;20.35;89.71;98653.95;4118180;84;21053;-84
2021/08/02 10:15:33;;;;;;;6.37;4.50;;;;;;;21.30;88.27;98656.93;4113384;84;21482;-82
2021/08/02 10:21:44;;;;;;;5.10;3.47;;;;;;;22.05;87.05;98653.47;4115754;84;21129;-82
2021/08/02 10:27:45;;;;;;;6.25;3.98;;;;;;;22.65;86.05;98655.33;4121999;84;21067;-83
2021/08/02 10:33:47;;;;;;;6.10;3.45;;;;;;;22.63;85.08;98660.58;4116962;84;21709;-82
2021/08/02 10:39:48;;;;;;;4.30;3.27;;;;;;;22.97;83.35;98653.30;4121304;84;21960;-83
2021/08/02 10:45:51;;;;;;;4.12;3.42;;;;;;;23.27;80.83;98658.60;4117185;84;21031;-82
2021/08/02 10:51:58;;;;;;;5.55;3.65;;;;;;;23.51;79.88;98653.88;4114225;84;21091;-82
2021/08/02 10:58:00;;;;;;;4.97;3.25;;;;;;;23.63;78.31;98644.55;4116998;84;21463;-82
2021/08/02 11:04:14;;;;;;;4.33;3.37;;;;;;;23.59;78.51;98642.53;4119333;84;21072;-82
2021/08/02 11:10:17;;;;;;;3.72;3.42;;;;;;;23.02;76.89;98647.74;4112905;84;22214;-82
2021/08/02 11:16:19;;;;;;;4.70;3.40;;;;;;;22.53;75.81;98654.06;4090899;84;21075;-83
2021/08/02 11:22:21;;;;;;;5.83;2.95;;;;;;;23.18;72.81;98638.41;4111938;84;21050;-82
2021/08/02 11:28:22;;;;;;;6.03;3.50;;;;;;;23.50;73.68;98620.22;4115479;84;21115;-81
2021/08/02 11:34:24;;;;;;;5.58;3.15;;;;;;;23.50;73.68;98620.22;4109978;84;21027;-83
2021/08/02 11:40:33;;;;;;;3.60;2.70;;;;;;;23.68;73.78;98650.13;4110914;84;21565;-80
2021/08/02 11:46:35;;;;;;;3.67;2.98;;;;;;;24.25;73.09;98640.56;4118246;84;21121;-80
2021/08/02 11:52:36;;;;;;;5.67;2.52;;;;;;;24.42;71.33;98659.88;4113896;84;21426;-80
2021/08/02 11:58:42;;;;;;;4.28;2.70;;;;;;;24.31;70.87;98665.23;4117686;84;21070;-80
2021/08/02 12:04:45;;;;;;;2.72;2.50;;;;;;;23.90;70.75;98668.83;4026475;86;21645;-83
2021/08/02 12:11:05;;;;;;;3.50;1.92;;;;;;;23.26;69.78;98675.83;3973156;87;21186;-83
2021/08/02 12:17:09;;;;;;;3.60;2.30;;;;;;;22.68;69.74;98671.74;4112270;84;21055;-82
2021/08/02 12:23:15;;;;;;;3.02;2.40;;;;;;;22.52;69.60;98688.15;4114808;84;21059;-83
2021/08/02 12:29:26;;;;;;;8.43;3.08;;;;;;;22.22;69.55;98686.81;4112750;84;21031;-82
2021/08/02 12:35:28;;;;;;;4.25;2.92;;;;;;;21.98;69.11;98685.78;4119354;84;21075;-81
2021/08/02 12:41:37;;;;;;;5.85;2.47;;;;;;;21.77;69.28;98686.63;4114860;84;21039;-82
2021/08/02 12:47:39;;;;;;;6.30;2.83;;;;;;;21.57;69.44;98679.98;4109064;84;21020;-82
2021/08/02 12:53:42;;;;;;;4.03;2.37;;;;;;;21.45;69.67;98680.24;4113556;84;22263;-82
2021/08/02 12:59:43;;;;;;;4.60;2.98;;;;;;;21.62;70.09;98676.61;4119391;84;21044;-81
2021/08/02 13:05:45;;;;;;;2.92;2.47;;;;;;;21.77;69.39;98664.34;4113249;84;21028;-81
2021/08/02 13:11:46;;;;;;;3.08;2.40;;;;;;;21.90;69.55;98657.43;4111967;84;21023;-83
2021/08/02 13:17:48;;;;;;;5.12;2.47;;;;;;;21.85;67.09;98667.02;4113709;84;21590;-82
2021/08/02 13:30:10;;;;;;;3.90;3.02;;;;;;;21.63;68.24;98655.88;4117164;84;21036;-82
2021/08/02 13:36:11;;;;;;;3.12;2.45;;;;;;;21.58;68.60;98651.67;4115742;84;21591;-82
2021/08/02 13:42:13;;;;;;;2.87;2.67;;;;;;;21.58;69.62;98650.92;4117473;84;21102;-81
2021/08/02 13:48:15;;;;;;;3.50;2.80;;;;;;;21.60;69.41;98645.65;4117549;84;21693;-82
2021/08/02 13:54:17;;;;;;;3.35;2.77;;;;;;;21.62;69.37;98650.16;4115376;84;21102;-81
2021/08/02 14:00:19;;;;;;;4.35;2.62;;;;;;;21.46;68.96;98658.72;4119348;84;21101;-82
2021/08/02 14:06:20;;;;;;;3.25;2.95;;;;;;;21.53;69.42;98657.83;4111164;84;21007;-82
2021/08/02 14:12:23;;;;;;;3.22;2.75;;;;;;;21.63;68.62;98655.88;4120398;84;21037;-82
2021/08/02 14:18:37;;;;;;;3.75;3.00;;;;;;;21.65;68.60;98650.02;4118576;84;21035;-82
2021/08/02 14:24:41;;;;;;;5.17;2.98;;;;;;;21.71;69.10;98646.80;4113610;84;21035;-81
2021/08/02 14:30:43;;;;;;;2.40;2.20;;;;;;;21.67;69.09;98637.78;4121010;84;21062;-82
2021/08/02 14:36:46;;;;;;;2.10;1.90;;;;;;;21.60;68.37;98654.79;4119634;84;20988;-83
2021/08/02 14:42:47;;;;;;;2.75;2.30;;;;;;;21.61;67.73;98652.79;4115273;84;21644;-82
2021/08/02 14:48:53;;;;;;;4.08;2.25;;;;;;;21.47;68.36;98659.66;4112197;84;21042;-84
2021/08/02 14:54:56;;;;;;;3.02;2.50;;;;;;;21.28;68.24;98667.73;4121556;84;21058;-82
2021/08/02 15:01:00;;;;;;;3.30;2.65;;;;;;;21.14;68.32;98678.62;4117868;84;21082;-82
2021/08/02 15:07:05;;;;;;;4.00;3.02;;;;;;;21.11;68.49;98683.72;4115917;84;21078;-83
2021/08/02 15:13:08;;;;;;;2.62;2.42;;;;;;;21.08;68.10;98693.73;4112068;84;22244;-82
2021/08/02 15:19:16;;;;;;;2.90;2.30;;;;;;;21.04;67.95;98684.73;4109359;84;21596;-82
2021/08/02 15:25:20;;;;;;;4.90;2.30;;;;;;;21.10;68.42;98696.84;4115110;84;21597;-81
2021/08/02 15:31:24;;;;;;;2.62;2.15;;;;;;;21.01;68.01;98694.59;4112751;84;21149;-82
2021/08/02 15:37:29;;;;;;;2.75;2.40;;;;;;;20.90;67.54;98686.61;4117662;84;21038;-82
2021/08/02 15:43:31;;;;;;;3.45;2.60;;;;;;;20.82;67.45;98671.99;4115808;84;21110;-82
2021/08/02 15:49:32;;;;;;;6.08;2.75;;;;;;;20.61;67.74;98665.16;4116891;84;21034;-81
2021/08/02 15:55:37;;;;;;;3.90;2.67;;;;;;;20.40;68.19;98672.84;4121777;84;21109;-82
2021/08/02 16:01:40;;;;;;;4.92;3.25;;;;;;;20.26;68.89;98685.03;4115557;84;21549;-81
2021/08/02 16:07:45;;;;;;;4.65;3.15;;;;;;;20.16;69.39;98700.83;4113245;84;21035;-82
2021/08/02 16:13:48;;;;;;;4.60;3.25;;;;;;;20.09;69.78;98721.88;4120094;84;21082;-82
2021/08/02 16:19:49;;;;;;;8.25;2.65;;;;;;;19.99;70.19;98757.10;4006647;84;10000117;-82
2021/08/02 16:25:52;;;;;;;6.70;2.42;;;;;;;19.64;69.64;98790.07;4118615;84;21160;-82
2021/08/02 16:31:54;;;;;;;3.87;1.95;;;;;;;19.25;69.96;98790.94;4116015;84;21051;-82
2021/08/02 16:37:55;;;;;;;2.85;1.90;;;;;;;18.81;70.08;98806.34;4117936;84;21655;-84
2021/08/02 16:43:57;;;;;;;5.05;2.80;;;;;;;18.42;70.95;98808.69;4120925;84;21542;-82
2021/08/02 16:49:58;;;;;;;4.20;2.25;;;;;;;17.96;72.10;98822.73;4115053;84;21170;-83
2021/08/02 16:55:59;;;;;;;4.97;2.47;;;;;;;17.59;73.98;98802.35;4116293;84;21027;-82
2021/08/02 17:02:00;;;;;;;4.97;2.40;;;;;;;17.26;73.81;98810.27;4108595;84;21023;-81
2021/08/02 17:08:02;;;;;;;5.03;2.05;;;;;;;17.01;74.88;98791.38;4109456;84;22084;-81
2021/08/02 17:14:06;;;;;;;4.95;2.50;;;;;;;16.95;75.96;98781.22;4117388;84;21065;-82
2021/08/02 17:20:09;;;;;;;3.35;2.47;;;;;;;16.90;78.23;98793.55;4119757;84;21035;-82
2021/08/02 17:26:10;;;;;;;3.67;1.62;;;;;;;16.78;76.80;98798.30;4120048;84;21066;-81
2021/08/02 17:32:11;;;;;;;2.72;1.70;;;;;;;16.81;77.03;98808.52;4120680;84;21083;-81
2021/08/02 17:38:12;;;;;;;3.20;1.80;;;;;;;16.78;77.38;98803.83;4120403;84;21093;-81
2021/08/02 17:44:14;;;;;;;4.58;2.10;;;;;;;16.68;77.37;98809.52;4118924;84;21071;-82
2021/08/02 17:50:16;;;;;;;7.10;2.27;;;;;;;16.66;77.57;98816.08;4119556;84;21420;-83
2021/08/02 17:56:17;;;;;;;2.47;1.65;;;;;;;16.60;77.77;98824.05;4127251;84;21041;-82
2021/08/02 18:02:20;;;;;;;1.98;1.60;;;;;;;16.53;78.10;98827.53;4115713;84;21904;-81
2021/08/02 18:08:22;;;;;;;2.05;1.30;;;;;;;16.43;78.25;98837.51;4119660;84;21035;-82
2021/08/02 18:14:26;;;;;;;5.90;1.60;;;;;;;16.39;78.25;98847.84;4114183;84;21580;-82
2021/08/02 18:20:26;;;;;;;2.47;1.77;;;;;;;16.30;78.41;98854.46;4118060;84;21110;-82
2021/08/02 18:26:28;;;;;;;4.10;1.90;;;;;;;16.26;78.83;98857.09;4120034;84;21048;-82
2021/08/02 18:32:29;;;;;;;2.83;1.72;;;;;;;16.18;78.88;98859.77;4117831;84;21032;-82
2021/08/02 18:38:30;;;;;;;3.25;1.77;;;;;;;16.09;79.01;98856.73;4121324;84;20973;-82
2021/08/02 18:44:31;;;;;;;2.33;1.30;;;;;;;15.99;79.51;98854.30;4121523;84;21055;-81
2021/08/02 18:50:32;;;;;;;4.22;1.82;;;;;;;15.86;79.91;98853.88;4116357;84;21506;-82
2021/08/02 18:56:34;;;;;;;4.17;1.70;;;;;;;15.69;80.37;98861.19;4119669;84;21978;-82
2021/08/02 19:02:35;;;;;;;4.83;1.55;;;;;;;15.58;80.52;98875.70;4111457;84;20984;-82
2021/08/02 19:08:37;;;;;;;7.08;2.42;;;;;;;15.42;80.80;98886.50;4114045;84;21089;-81
2021/08/02 19:14:41;;;;;;;3.85;2.00;;;;;;;15.29;81.64;98893.68;4118905;84;22008;-81
2021/08/02 19:20:47;;;;;;;3.70;2.10;;;;;;;15.37;81.98;98891.05;4114755;84;21575;-82
2021/08/02 19:26:50;;;;;;;3.45;2.02;;;;;;;15.34;82.38;98892.66;4116776;84;21058;-82
2021/08/02 19:32:52;;;;;;;3.83;1.90;;;;;;;15.31;82.13;98891.30;4117408;84;22336;-82
2021/08/02 19:38:54;;;;;;;5.03;2.27;;;;;;;15.15;82.40;98897.36;4117299;84;21070;-82
2021/08/02 19:45:05;;;;;;;3.58;2.27;;;;;;;15.18;83.39;98895.75;4117542;84;21953;-82
2021/08/02 19:51:15;;;;;;;3.52;2.50;;;;;;;15.19;83.10;98887.06;4114795;84;21531;-84
2021/08/02 19:57:21;;;;;;;7.60;2.20;;;;;;;15.12;83.22;98883.02;4115317;84;21058;-81
2021/08/02 20:03:22;;;;;;;5.55;2.55;;;;;;;15.06;83.91;98893.50;4034756;86;21031;-82
2021/08/02 20:09:24;;;;;;;5.15;2.80;;;;;;;15.00;84.25;98904.16;4113171;84;21104;-81
2021/08/02 20:15:26;;;;;;;5.72;2.70;;;;;;;14.96;84.13;98901.25;4119431;84;21035;-82
2021/08/02 20:21:30;;;;;;;6.87;3.17;;;;;;;14.78;84.50;98909.67;4115119;84;21046;-82
2021/08/02 20:27:35;;;;;;;4.05;2.52;;;;;;;14.80;84.95;98904.52;4118429;84;21515;-82
2021/08/02 20:33:43;;;;;;;8.28;2.67;;;;;;;14.69;84.98;98909.31;4117258;84;21080;-82
2021/08/02 20:39:50;;;;;;;4.58;2.52;;;;;;;14.71;85.59;98907.53;4119165;84;21054;-81
2021/08/02 20:45:49;;;;;;;4.03;2.58;;;;;;;14.79;85.55;98915.95;4116541;84;21566;-82
2021/08/02 20:51:51;;;;;;;4.45;2.87;;;;;;;14.83;85.98;98922.23;4120506;84;21003;-81
2021/08/02 20:57:53;;;;;;;5.80;2.52;;;;;;;14.81;85.83;98921.27;4118267;84;21579;-81
2021/08/02 21:04:03;;;;;;;4.60;2.98;;;;;;;14.79;85.62;98927.77;4120157;84;21422;-82
2021/08/02 21:10:09;;;;;;;4.05;2.80;;;;;;;14.70;85.78;98922.52;4121306;84;21042;-82
2021/08/02 21:16:12;;;;;;;4.83;2.80;;;;;;;14.67;86.26;98927.45;4117304;84;21522;-81
2021/08/02 21:22:18;;;;;;;7.72;2.98;;;;;;;14.70;86.49;98926.64;4123727;84;21010;-81
2021/08/02 21:28:20;;;;;;;5.17;2.75;;;;;;;14.62;86.50;98926.50;4117907;84;21034;-82
2021/08/02 21:34:21;;;;;;;4.87;2.80;;;;;;;14.49;86.49;98930.31;4121167;84;21090;-81
2021/08/02 21:40:23;;;;;;;8.18;3.10;;;;;;;14.50;87.32;98931.86;4118855;84;21014;-81
2021/08/02 21:46:24;;;;;;;8.13;4.62;;;;;;;14.54;87.19;98942.28;4119721;84;21019;-82
2021/08/02 21:52:26;;;;;;;5.05;3.08;;;;;;;14.54;87.06;98943.66;4033938;85;21577;-82
2021/08/02 21:58:28;;;;;;;4.30;3.30;;;;;;;14.49;87.12;98948.80;3976912;88;21629;-81
2021/08/02 22:04:29;;;;;;;5.08;3.35;;;;;;;14.23;86.70;98950.67;3999786;87;22553;-81
2021/08/02 22:10:31;;;;;;;4.42;3.12;;;;;;;13.90;87.06;98949.22;3985614;87;21086;-81
2021/08/02 22:16:33;;;;;;;5.40;3.25;;;;;;;13.89;87.63;98945.67;3987110;87;21085;-81
2021/08/02 22:22:34;;;;;;;6.50;3.87;;;;;;;13.99;88.15;98946.24;3988621;87;21130;-81
2021/08/02 22:28:36;;;;;;;3.67;3.00;;;;;;;13.94;87.93;98956.28;4000864;87;21089;-83
2021/08/02 22:34:38;;;;;;;7.53;3.40;;;;;;;14.04;88.69;98950.55;4036859;86;21026;-81
2021/08/02 22:40:39;;;;;;;5.83;3.20;;;;;;;14.01;88.50;98952.72;4122536;84;21050;-82
2021/08/02 22:46:40;;;;;;;6.92;3.30;;;;;;;13.99;88.91;98946.24;4115938;84;21402;-81
2021/08/02 22:52:43;;;;;;;4.50;3.50;;;;;;;14.10;89.18;98954.45;4116027;84;21011;-81
2021/08/02 22:58:45;;;;;;;3.85;3.27;;;;;;;13.84;88.26;98967.32;4094259;84;21058;-82
2021/08/02 23:04:49;;;;;;;7.03;3.45;;;;;;;13.81;88.91;98963.38;4113960;84;21059;-81
2021/08/02 23:10:51;;;;;;;3.72;3.08;;;;;;;13.74;89.31;98967.53;4114260;84;21011;-80
2021/08/02 23:16:55;;;;;;;6.45;3.58;;;;;;;13.75;89.30;98955.34;4121109;84;21106;-82
2021/08/02 23:22:58;;;;;;;4.35;3.30;;;;;;;13.74;89.27;98955.73;4113384;84;21030;-81
2021/08/02 23:29:05;;;;;;;6.33;3.58;;;;;;;13.82;90.10;98953.16;4115886;84;21122;-82
2021/08/02 23:35:08;;;;;;;7.15;2.92;;;;;;;13.91;89.93;98957.66;4120788;85;21031;-81
2021/08/02 23:41:10;;;;;;;5.12;3.58;;;;;;;13.96;90.10;98966.30;4116756;84;21006;-81
2021/08/02 23:47:11;;;;;;;8.43;3.25;;;;;;;14.04;89.92;98967.06;4112190;84;22110;-81
2021/08/02 23:53:14;;;;;;;7.83;3.50;;;;;;;14.03;89.81;98972.38;4117933;84;21514;-81
2021/08/02 23:59:15;;;;;;;5.03;3.45;;;;;;;13.99;89.54;98971.01;4116800;84;21088;-81
